Time;durP1;ratioP1;P1;durP2;ratioP2;P2;SDS_P1;SDS_P2;PMS_P1;PMS_P2;Temp;Humidity;BMP_temperature;BMP_pressure;BME280_temperature;BME280_humidity;BME280_pressure;Samples;Min_cycle;Max_cycle;Signal;HPM_P1;HPM_P2
2022/01/28 00:01:06;;;;;;;;;48.00;41.50;;;;;-146.25;100.00;57879.81;5033815;28;45402;-76
2022/01/28 00:03:34;;;;;;;;;55.00;40.75;;;;;-146.25;100.00;57879.81;5033339;28;45513;-76
2022/01/28 00:06:00;;;;;;;;;50.00;39.50;;;;;-146.25;100.00;57879.81;5034999;28;46017;-75
2022/01/28 00:08:26;;;;;;;;;46.50;39.25;;;;;-146.25;100.00;57879.81;5035093;28;45484;-77
2022/01/28 00:10:52;;;;;;;;;48.50;39.25;;;;;-146.25;100.00;57879.81;5034895;28;45270;-76
2022/01/28 00:13:22;;;;;;;;;45.50;39.75;;;;;-146.25;100.00;57879.81;5036267;28;45675;-77
2022/01/28 00:39:42;;;;;;;;;46.25;39.75;;;;;-146.25;100.00;57879.81;5038310;28;45402;-77
2022/01/28 00:42:08;;;;;;;;;47.25;38.00;;;;;-146.25;100.00;57879.81;5035563;28;45394;-77
2022/01/28 00:44:34;;;;;;;;;43.75;36.25;;;;;-146.25;100.00;57879.81;5038566;28;45469;-76
2022/01/28 00:46:59;;;;;;;;;44.25;35.75;;;;;-146.25;100.00;57879.81;5038050;28;45399;-77
2022/01/28 00:49:26;;;;;;;;;41.25;37.50;;;;;-146.25;100.00;57879.81;5038050;28;45590;-77
2022/01/28 00:51:52;;;;;;;;;46.00;36.50;;;;;-146.25;100.00;57879.81;5038117;28;45461;-77
2022/01/28 00:54:18;;;;;;;;;22.00;15.75;;;;;-146.25;100.00;57879.81;5038364;28;45322;-76
2022/01/28 00:56:44;;;;;;;;;44.25;36.25;;;;;-146.25;100.00;57879.81;5037913;28;45407;-76
2022/01/28 00:59:11;;;;;;;;;46.25;39.00;;;;;-146.25;100.00;57879.81;5038234;28;45473;-76
2022/01/28 01:01:37;;;;;;;;;38.75;36.25;;;;;-146.25;100.00;57879.81;5037915;28;45488;-76
2022/01/28 01:04:04;;;;;;;;;52.25;42.25;;;;;-146.25;100.00;57879.81;5036773;28;46945;-76
2022/01/28 01:06:30;;;;;;;;;47.00;40.50;;;;;-146.25;100.00;57879.81;5035339;28;46061;-75
2022/01/28 01:08:57;;;;;;;;;51.00;40.00;;;;;-146.25;100.00;57879.81;5037887;28;45618;-76
2022/01/28 01:11:23;;;;;;;;;46.75;39.00;;;;;-146.25;100.00;57879.81;5037633;28;45507;-76
2022/01/28 01:13:50;;;;;;;;;46.75;37.75;;;;;-146.25;100.00;57879.81;5035520;28;45425;-76
2022/01/28 01:16:21;;;;;;;;;40.00;35.75;;;;;-146.25;100.00;57879.81;5037628;28;46021;-77
2022/01/28 01:18:54;;;;;;;;;45.00;39.00;;;;;-146.25;100.00;57879.81;5037500;28;45372;-76
2022/01/28 01:21:24;;;;;;;;;43.50;39.00;;;;;-146.25;100.00;57879.81;5037629;28;45554;-77
2022/01/28 01:23:54;;;;;;;;;49.25;40.50;;;;;-146.25;100.00;57879.81;5035255;28;45455;-76
2022/01/28 01:26:28;;;;;;;;;43.00;38.00;;;;;-146.25;100.00;57879.81;5036319;28;45185;-76
2022/01/28 01:28:54;;;;;;;;;49.00;39.00;;;;;-146.25;100.00;57879.81;5035477;28;45502;-77
2022/01/28 01:31:20;;;;;;;;;48.25;40.25;;;;;-146.25;100.00;57879.81;5037415;28;45515;-75
2022/01/28 01:34:01;;;;;;;;;44.75;39.25;;;;;-146.25;100.00;57879.81;5037695;28;45464;-76
2022/01/28 01:36:27;;;;;;;;;46.00;40.00;;;;;-146.25;100.00;57879.81;5037256;28;45572;-77
2022/01/28 01:38:53;;;;;;;;;39.50;34.00;;;;;-146.25;100.00;57879.81;5037269;28;45478;-76
2022/01/28 01:41:29;;;;;;;;;46.50;37.25;;;;;-146.25;100.00;57879.81;5037375;28;45597;-77
2022/01/28 01:54:15;;;;;;;;;41.50;35.00;;;;;-146.25;100.00;57879.81;5035742;28;45461;-76
2022/01/28 01:56:41;;;;;;;;;40.75;37.75;;;;;-146.25;100.00;57879.81;5037050;28;45375;-76
2022/01/28 01:59:08;;;;;;;;;41.25;32.50;;;;;-146.25;100.00;57879.81;5035528;28;46035;-76
2022/01/28 02:01:34;;;;;;;;;40.75;35.00;;;;;-146.25;100.00;57879.81;5036988;28;45502;-75
2022/01/28 02:03:59;;;;;;;;;39.75;35.50;;;;;-146.25;100.00;57879.81;5037337;28;45785;-76
2022/01/28 02:06:25;;;;;;;;;42.50;34.75;;;;;-146.25;100.00;57879.81;5036830;28;45367;-76
2022/01/28 02:08:51;;;;;;;;;41.75;35.25;;;;;-146.25;100.00;57879.81;5036975;28;45369;-76
2022/01/28 02:11:16;;;;;;;;;41.75;34.75;;;;;-146.25;100.00;57879.81;5036919;28;45380;-76
2022/01/28 02:13:50;;;;;;;;;34.50;32.25;;;;;-146.25;100.00;57879.81;5037307;28;45509;-76
2022/01/28 02:16:16;;;;;;;;;39.50;32.75;;;;;-146.25;100.00;57879.81;5035064;28;46113;-76
2022/01/28 02:18:42;;;;;;;;;36.50;29.50;;;;;-146.25;100.00;57879.81;5036866;28;45490;-77
2022/01/28 02:21:10;;;;;;;;;40.00;34.50;;;;;-146.25;100.00;57879.81;5036751;28;45327;-77
2022/01/28 02:23:37;;;;;;;;;34.00;31.25;;;;;-146.25;100.00;57879.81;5036921;28;45337;-76
2022/01/28 02:26:04;;;;;;;;;36.75;34.75;;;;;-146.25;100.00;57879.81;5036376;28;46267;-75
2022/01/28 02:28:35;;;;;;;;;39.75;35.25;;;;;-146.25;100.00;57879.81;5033993;28;45553;-74
2022/01/28 02:31:04;;;;;;;;;42.25;35.50;;;;;-146.25;100.00;57879.81;5036439;28;45604;-75
2022/01/28 02:33:29;;;;;;;;;44.00;38.50;;;;;-146.25;100.00;57879.81;5034096;28;45436;-76
2022/01/28 02:36:02;;;;;;;;;41.00;37.00;;;;;-146.25;100.00;57879.81;5036399;28;45641;-76
2022/01/28 02:38:28;;;;;;;;;35.00;31.00;;;;;-146.25;100.00;57879.81;5036474;28;45307;-76
2022/01/28 02:40:59;;;;;;;;;32.25;27.50;;;;;-146.25;100.00;57879.81;5036403;28;45595;-76
2022/01/28 02:43:33;;;;;;;;;43.00;33.75;;;;;-146.25;100.00;57879.81;5036729;28;45482;-76
2022/01/28 02:46:17;;;;;;;;;34.00;30.75;;;;;-146.25;100.00;57879.81;5036174;28;45531;-76
2022/01/28 02:48:54;;;;;;;;;36.25;29.50;;;;;-146.25;100.00;57879.81;5033508;28;45453;-76
2022/01/28 02:51:21;;;;;;;;;36.25;31.00;;;;;-146.25;100.00;57879.81;5034771;28;45579;-74
2022/01/28 02:56:17;;;;;;;;;29.75;27.50;;;;;-146.25;100.00;57879.81;5036134;28;46039;-76
2022/01/28 02:58:44;;;;;;;;;30.50;27.75;;;;;-146.25;100.00;57879.81;5038278;28;45495;-76
2022/01/28 03:01:14;;;;;;;;;33.75;31.75;;;;;-146.25;100.00;57879.81;5038172;28;45868;-76
2022/01/28 03:03:42;;;;;;;;;36.50;27.50;;;;;-146.25;100.00;57879.81;5037926;28;45468;-76
2022/01/28 03:06:09;;;;;;;;;31.50;29.75;;;;;-146.25;100.00;57879.81;5037700;28;45360;-77
2022/01/28 03:08:35;;;;;;;;;31.25;29.00;;;;;-146.25;100.00;57879.81;5037391;28;45616;-76
2022/01/28 03:15:54;;;;;;;;;22.50;22.25;;;;;-146.25;100.00;57879.81;5037507;28;45740;-76
2022/01/28 03:18:25;;;;;;;;;29.50;23.25;;;;;-146.25;100.00;57879.81;5037521;28;45460;-75
2022/01/28 03:23:16;;;;;;;;;27.00;25.75;;;;;-146.25;100.00;57879.81;5037761;28;45970;-74
2022/01/28 03:25:44;;;;;;;;;31.50;27.75;;;;;-146.25;100.00;57879.81;5037490;28;45876;-75
2022/01/28 03:28:10;;;;;;;;;23.50;23.25;;;;;-146.25;100.00;57879.81;5037319;28;45744;-76
2022/01/28 03:30:36;;;;;;;;;30.50;28.75;;;;;-146.25;100.00;57879.81;5037256;28;45608;-75
2022/01/28 03:33:02;;;;;;;;;29.00;25.75;;;;;-146.25;100.00;57879.81;5037105;28;45535;-76
2022/01/28 03:35:29;;;;;;;;;26.00;22.75;;;;;-146.25;100.00;57879.81;5037201;28;45500;-75
2022/01/28 03:38:00;;;;;;;;;28.00;25.25;;;;;-146.25;100.00;57879.81;5058006;28;45215;-75
2022/01/28 03:40:27;;;;;;;;;27.75;23.75;;;;;-146.25;100.00;57879.81;5065233;28;44709;-72
2022/01/28 03:42:52;;;;;;;;;32.75;28.50;;;;;-146.25;100.00;57879.81;5065569;28;44780;-73
2022/01/28 03:45:18;;;;;;;;;37.50;31.25;;;;;-146.25;100.00;57879.81;5062551;28;45163;-73
2022/01/28 03:47:47;;;;;;;;;33.00;30.75;;;;;-146.25;100.00;57879.81;5062022;28;44827;-75
2022/01/28 03:50:15;;;;;;;;;34.00;28.25;;;;;-146.25;100.00;57879.81;5048307;28;45195;-76
2022/01/28 03:52:40;;;;;;;;;32.75;24.00;;;;;-146.25;100.00;57879.81;5038701;28;45219;-76
2022/01/28 03:55:18;;;;;;;;;23.00;22.00;;;;;-146.25;100.00;57879.81;5038849;28;45456;-76
2022/01/28 03:57:49;;;;;;;;;24.50;18.25;;;;;-146.25;100.00;57879.81;5039179;28;45330;-77
2022/01/28 04:00:15;;;;;;;;;20.00;18.00;;;;;-146.25;100.00;57879.81;5038048;28;45252;-76
2022/01/28 04:02:43;;;;;;;;;21.50;16.75;;;;;-146.25;100.00;57879.81;5037231;28;45407;-76
2022/01/28 04:13:22;;;;;;;;;27.50;22.00;;;;;-146.25;100.00;57879.81;5037327;28;45393;-76
2022/01/28 04:16:03;;;;;;;;;23.25;21.75;;;;;-146.25;100.00;57879.81;5036994;28;45608;-76
2022/01/28 04:18:29;;;;;;;;;20.25;19.25;;;;;-146.25;100.00;57879.81;5036410;28;45516;-75
2022/01/28 04:20:54;;;;;;;;;23.25;18.25;;;;;-146.25;100.00;57879.81;5036388;28;45484;-76
2022/01/28 04:23:20;;;;;;;;;17.00;14.75;;;;;-146.25;100.00;57879.81;5037363;28;45497;-76
2022/01/28 04:25:45;;;;;;;;;18.75;17.00;;;;;-146.25;100.00;57879.81;5036828;28;45327;-76
2022/01/28 04:28:11;;;;;;;;;15.25;14.25;;;;;-146.25;100.00;57879.81;5035443;28;45446;-76
2022/01/28 04:30:36;;;;;;;;;21.00;18.00;;;;;-146.25;100.00;57879.81;5036642;28;45372;-76
2022/01/28 04:33:02;;;;;;;;;17.50;15.25;;;;;-146.25;100.00;57879.81;5036810;28;45318;-76
2022/01/28 04:35:28;;;;;;;;;18.00;16.00;;;;;-146.25;100.00;57879.81;5036289;28;45856;-76
2022/01/28 04:40:48;;;;;;;;;18.25;17.75;;;;;-146.25;100.00;57879.81;5036634;28;45472;-76
2022/01/28 04:43:23;;;;;;;;;18.25;17.00;;;;;-146.25;100.00;57879.81;5036620;28;46201;-76
2022/01/28 04:45:58;;;;;;;;;15.25;14.25;;;;;-146.25;100.00;57879.81;5036499;28;46248;-76
2022/01/28 04:51:14;;;;;;;;;18.75;17.25;;;;;-146.25;100.00;57879.81;5036723;28;45495;-76
2022/01/28 05:06:52;;;;;;;;;19.75;17.25;;;;;-146.25;100.00;57879.81;5039337;28;46067;-76
2022/01/28 05:09:52;;;;;;;;;16.00;13.75;;;;;-146.25;100.00;57879.81;5039348;28;45355;-76
2022/01/28 05:28:06;;;;;;;;;44.50;39.25;;;;;-146.25;100.00;57879.81;5038916;28;45570;-76
2022/01/28 05:30:32;;;;;;;;;39.75;33.00;;;;;-146.25;100.00;57879.81;5039052;28;45378;-77
2022/01/28 05:32:57;;;;;;;;;32.75;30.00;;;;;-146.25;100.00;57879.81;5039301;28;45358;-76
2022/01/28 05:35:23;;;;;;;;;43.25;39.50;;;;;-146.25;100.00;57879.81;5039727;28;45543;-76
2022/01/28 05:37:49;;;;;;;;;30.75;28.00;;;;;-146.25;100.00;57879.81;5039285;28;46234;-76
2022/01/28 05:40:15;;;;;;;;;34.00;28.50;;;;;-146.25;100.00;57879.81;5038822;28;45559;-76
2022/01/28 05:42:40;;;;;;;;;31.00;29.25;;;;;-146.25;100.00;57879.81;5038220;28;45418;-75
2022/01/28 05:45:08;;;;;;;;;28.00;27.00;;;;;-146.25;100.00;57879.81;5043151;28;45212;-76
2022/01/28 05:47:35;;;;;;;;;32.25;31.00;;;;;-146.25;100.00;57879.81;5053067;28;46267;-76
2022/01/28 05:50:02;;;;;;;;;35.75;31.00;;;;;-146.25;100.00;57879.81;5038805;28;45445;-77
2022/01/28 05:52:30;;;;;;;;;34.00;29.00;;;;;-146.25;100.00;57879.81;5038548;28;45345;-76
2022/01/28 05:54:56;;;;;;;;;34.00;29.75;;;;;-146.25;100.00;57879.81;5039214;28;45349;-73
2022/01/28 05:57:21;;;;;;;;;30.00;26.75;;;;;-146.25;100.00;57879.81;5039072;28;45593;-76
2022/01/28 05:59:47;;;;;;;;;28.50;26.00;;;;;-146.25;100.00;57879.81;5038826;28;45355;-76
2022/01/28 06:02:12;;;;;;;;;30.00;26.75;;;;;-146.25;100.00;57879.81;5038891;28;45644;-76
2022/01/28 06:04:39;;;;;;;;;29.75;25.25;;;;;-146.25;100.00;57879.81;5038954;28;45223;-78
2022/01/28 06:07:04;;;;;;;;;37.25;30.00;;;;;-146.25;100.00;57879.81;5038722;28;45422;-78
2022/01/28 06:09:31;;;;;;;;;31.50;28.75;;;;;-146.25;100.00;57879.81;5038650;28;45445;-78
2022/01/28 06:11:57;;;;;;;;;31.50;27.25;;;;;-146.25;100.00;57879.81;5038038;28;45510;-77
2022/01/28 06:14:22;;;;;;;;;27.75;25.50;;;;;-146.25;100.00;57879.81;5039025;28;45474;-78
2022/01/28 06:16:48;;;;;;;;;31.75;26.00;;;;;-146.25;100.00;57879.81;5038487;28;45355;-78
2022/01/28 06:19:13;;;;;;;;;28.75;23.75;;;;;-146.25;100.00;57879.81;5038507;28;45537;-78
2022/01/28 06:21:39;;;;;;;;;27.00;22.50;;;;;-146.25;100.00;57879.81;5037283;28;45308;-78
2022/01/28 06:24:05;;;;;;;;;23.25;19.25;;;;;-146.25;100.00;57879.81;5038566;28;45348;-78
2022/01/28 06:26:31;;;;;;;;;21.50;18.75;;;;;-146.25;100.00;57879.81;5038291;28;46205;-79
2022/01/28 06:28:56;;;;;;;;;22.75;20.50;;;;;-146.25;100.00;57879.81;5038461;28;45350;-78
2022/01/28 06:31:25;;;;;;;;;21.75;21.00;;;;;-146.25;100.00;57879.81;5038217;28;45361;-78
2022/01/28 06:33:53;;;;;;;;;27.50;24.50;;;;;-146.25;100.00;57879.81;5038297;28;46047;-75
2022/01/28 06:36:21;;;;;;;;;37.50;29.00;;;;;-146.25;100.00;57879.81;5034392;28;45554;-77
2022/01/28 06:38:49;;;;;;;;;33.00;31.00;;;;;-146.25;100.00;57879.81;5028477;28;45808;-75
2022/01/28 06:41:18;;;;;;;;;39.25;33.50;;;;;-146.25;100.00;57879.81;5028152;28;45611;-75
2022/01/28 06:43:53;;;;;;;;;38.00;32.25;;;;;-146.25;100.00;57879.81;5027410;28;45584;-72
2022/01/28 06:46:19;;;;;;;;;91.33;72.67;;;;;-146.25;100.00;57879.81;5026442;28;46213;-72
2022/01/28 06:48:46;;;;;;;;;118.75;106.50;;;;;-146.25;100.00;57879.81;5028980;28;45315;-75
2022/01/28 06:51:13;;;;;;;;;39.25;35.50;;;;;-146.25;100.00;57879.81;5024733;28;45455;-78
2022/01/28 06:53:39;;;;;;;;;37.75;33.00;;;;;-146.25;100.00;57879.81;5027321;28;45684;-76
2022/01/28 06:56:05;;;;;;;;;34.50;29.75;;;;;-146.25;100.00;57879.81;5030524;28;45685;-75
2022/01/28 06:58:30;;;;;;;;;31.25;29.75;;;;;-146.25;100.00;57879.81;5027802;28;45709;-78
2022/01/28 07:00:56;;;;;;;;;34.50;31.25;;;;;-146.25;100.00;57879.81;5025859;28;46188;-78
2022/01/28 07:03:21;;;;;;;;;35.75;31.00;;;;;-146.25;100.00;57879.81;5027004;28;45338;-78
2022/01/28 07:05:47;;;;;;;;;31.00;28.25;;;;;-146.25;100.00;57879.81;5026286;28;45529;-75
2022/01/28 07:08:12;;;;;;;;;33.25;30.50;;;;;-146.25;100.00;57879.81;5026889;28;45436;-76
2022/01/28 07:10:38;;;;;;;;;72.75;56.00;;;;;-146.25;100.00;57879.81;5024412;28;45577;-77
2022/01/28 07:13:05;;;;;;;;;69.25;56.00;;;;;-146.25;100.00;57879.81;5026919;28;45458;-78
2022/01/28 07:15:31;;;;;;;;;77.00;59.00;;;;;-146.25;100.00;57879.81;5025805;28;46394;-78
2022/01/28 07:18:02;;;;;;;;;71.00;54.25;;;;;-146.25;100.00;57879.81;5024705;28;45330;-78
2022/01/28 07:20:29;;;;;;;;;41.50;36.50;;;;;-146.25;100.00;57879.81;5027059;28;45445;-78
2022/01/28 07:22:55;;;;;;;;;55.75;43.25;;;;;-146.25;100.00;57879.81;5026319;28;45772;-78
2022/01/28 07:25:21;;;;;;;;;49.75;40.25;;;;;-146.25;100.00;57879.81;5024487;28;46147;-77
2022/01/28 07:27:47;;;;;;;;;45.75;37.50;;;;;-146.25;100.00;57879.81;5026139;28;45283;-77
2022/01/28 07:30:14;;;;;;;;;30.75;29.00;;;;;-146.25;100.00;57879.81;5025805;28;45497;-78
2022/01/28 07:32:40;;;;;;;;;31.00;30.00;;;;;-146.25;100.00;57879.81;5024385;28;45420;-78
2022/01/28 07:35:06;;;;;;;;;144.75;131.50;;;;;-146.25;100.00;57879.81;5026039;28;45505;-75
2022/01/28 07:37:32;;;;;;;;;57.00;47.00;;;;;-146.25;100.00;57879.81;5041033;28;45503;-77
2022/01/28 07:39:57;;;;;;;;;43.25;40.00;;;;;-146.25;100.00;57879.81;5023599;28;45550;-77
2022/01/28 07:42:25;;;;;;;;;40.50;35.50;;;;;-146.25;100.00;57879.81;5027405;28;45431;-77
2022/01/28 07:44:51;;;;;;;;;39.00;32.00;;;;;-146.25;100.00;57879.81;5025437;28;45520;-77
2022/01/28 07:47:16;;;;;;;;;35.75;30.00;;;;;-146.25;100.00;57879.81;5021113;28;45477;-79
2022/01/28 07:49:42;;;;;;;;;43.75;34.00;;;;;-146.25;100.00;57879.81;5017284;28;45325;-78
2022/01/28 07:52:07;;;;;;;;;38.25;33.75;;;;;-146.25;100.00;57879.81;5029143;28;45374;-77
2022/01/28 07:54:33;;;;;;;;;40.75;36.50;;;;;-146.25;100.00;57879.81;5038501;28;45561;-75
2022/01/28 07:57:00;;;;;;;;;52.25;40.25;;;;;-146.25;100.00;57879.81;5055507;28;45411;-81
2022/01/28 07:59:26;;;;;;;;;46.00;40.25;;;;;-146.25;100.00;57879.81;5055928;28;45581;-75
2022/01/28 08:01:51;;;;;;;;;42.75;38.50;;;;;-146.25;100.00;57879.81;5040846;28;45592;-74
2022/01/28 08:04:17;;;;;;;;;40.75;37.75;;;;;-146.25;100.00;57879.81;5068922;28;46353;-74
2022/01/28 08:06:43;;;;;;;;;41.50;35.50;;;;;-146.25;100.00;57879.81;5054270;28;45480;-74
2022/01/28 08:09:08;;;;;;;;;36.25;34.50;;;;;-146.25;100.00;57879.81;5055744;28;45399;-74
2022/01/28 08:11:34;;;;;;;;;35.75;33.00;;;;;-146.25;100.00;57879.81;5056646;28;45389;-76
2022/01/28 08:14:02;;;;;;;;;42.50;38.25;;;;;-146.25;100.00;57879.81;5055850;28;45700;-73
2022/01/28 08:16:27;;;;;;;;;38.25;36.75;;;;;-146.25;100.00;57879.81;5055877;28;45534;-73
2022/01/28 08:18:53;;;;;;;;;47.50;38.00;;;;;-146.25;100.00;57879.81;5055316;28;45524;-76
2022/01/28 08:21:18;;;;;;;;;27.75;24.50;;;;;-146.25;100.00;57879.81;5055348;28;45477;-74
2022/01/28 08:23:45;;;;;;;;;38.25;28.75;;;;;-146.25;100.00;57879.81;5055804;28;45494;-74
2022/01/28 08:26:11;;;;;;;;;38.25;33.00;;;;;-146.25;100.00;57879.81;5054263;28;45554;-74
2022/01/28 08:28:41;;;;;;;;;34.00;28.00;;;;;-146.25;100.00;57879.81;5055919;28;45502;-74
2022/01/28 08:31:07;;;;;;;;;29.00;27.50;;;;;-146.25;100.00;57879.81;5054648;28;45415;-74
2022/01/28 08:33:33;;;;;;;;;28.00;26.50;;;;;-146.25;100.00;57879.81;5055160;28;45499;-76
2022/01/28 08:35:59;;;;;;;;;32.75;28.25;;;;;-146.25;100.00;57879.81;5057873;28;45502;-74
2022/01/28 08:38:26;;;;;;;;;36.50;28.25;;;;;-146.25;100.00;57879.81;5054298;28;45493;-74
2022/01/28 08:40:53;;;;;;;;;30.25;28.25;;;;;-146.25;100.00;57879.81;5049697;28;45820;-73
2022/01/28 08:43:20;;;;;;;;;26.75;25.50;;;;;-146.25;100.00;57879.81;5063994;28;45608;-76
2022/01/28 08:45:45;;;;;;;;;29.00;27.00;;;;;-146.25;100.00;57879.81;5062897;28;45408;-75
2022/01/28 08:48:11;;;;;;;;;31.75;29.75;;;;;-146.25;100.00;57879.81;5047147;28;45335;-74
2022/01/28 08:50:37;;;;;;;;;31.25;27.75;;;;;-146.25;100.00;57879.81;5048764;28;45399;-74
2022/01/28 08:53:03;;;;;;;;;26.00;23.25;;;;;-146.25;100.00;57879.81;5048744;28;45316;-75
2022/01/28 08:55:29;;;;;;;;;48.75;39.00;;;;;-146.25;100.00;57879.81;5041966;28;45457;-75
2022/01/28 08:57:57;;;;;;;;;57.50;46.50;;;;;-146.25;100.00;57879.81;5053980;28;45539;-74
2022/01/28 10:26:01;;;;;;;;;28.50;26.25;;;;;12.22;54.07;102384.06;5090461;27;45297;-75
2022/01/28 10:28:26;;;;;;;;;24.75;23.50;;;;;12.26;53.82;102377.25;5072337;28;45581;-75
2022/01/28 10:30:52;;;;;;;;;25.00;23.00;;;;;12.28;53.61;102380.88;5073651;27;45437;-75
2022/01/28 10:33:21;;;;;;;;;26.00;23.25;;;;;12.42;54.10;102408.69;5073812;27;45444;-75
2022/01/28 10:35:58;;;;;;;;;23.50;22.00;;;;;12.42;54.19;102415.66;5073255;27;46464;-75
2022/01/28 10:38:33;;;;;;;;;32.75;28.75;;;;;12.46;53.69;102415.00;5073316;27;45503;-75
2022/01/28 10:41:20;;;;;;;;;29.50;26.25;;;;;12.64;54.45;102412.44;5073979;27;45386;-74
2022/01/28 10:43:50;;;;;;;;;20.75;18.75;;;;;12.83;54.16;102409.00;5073733;28;45411;-75
2022/01/28 10:46:29;;;;;;;;;20.75;20.25;;;;;12.69;53.10;102392.56;5073411;27;45510;-75
2022/01/28 10:49:01;;;;;;;;;22.25;19.00;;;;;12.63;53.29;102410.63;5073467;27;45603;-74
2022/01/28 10:51:49;;;;;;;;;24.25;21.25;;;;;12.53;53.80;102410.16;5073626;27;45290;-75
2022/01/28 10:54:21;;;;;;;;;20.25;19.75;;;;;12.52;52.95;102400.47;5073598;28;45444;-74
2022/01/28 10:56:49;;;;;;;;;24.00;20.00;;;;;12.14;53.25;102312.91;5073060;27;45571;-74
2022/01/28 10:59:18;;;;;;;;;19.25;17.75;;;;;12.72;52.46;102406.75;5089111;27;45713;-75
2022/01/28 11:01:44;;;;;;;;;18.00;16.00;;;;;12.60;51.42;102379.00;5073550;27;45488;-77
2022/01/28 11:04:12;;;;;;;;;36.75;33.25;;;;;12.68;51.27;102404.78;5073438;27;45358;-75
2022/01/28 11:06:42;;;;;;;;;29.00;27.50;;;;;12.58;50.83;102362.31;5072970;27;45546;-74
2022/01/28 11:09:08;;;;;;;;;16.25;14.00;;;;;12.66;50.69;102384.56;5073003;27;45447;-75
2022/01/28 11:11:35;;;;;;;;;13.50;12.25;;;;;12.23;49.50;102338.69;5072133;28;45241;-75
2022/01/28 11:14:01;;;;;;;;;17.00;15.25;;;;;11.94;50.42;102310.97;5073717;27;45487;-75
2022/01/28 11:16:26;;;;;;;;;20.00;17.50;;;;;12.04;50.27;102359.53;5068766;27;45238;-75
2022/01/28 11:18:54;;;;;;;;;16.00;14.50;;;;;11.97;50.87;102360.00;5058031;28;45269;-75
2022/01/28 11:21:30;;;;;;;;;18.00;17.00;;;;;12.08;50.88;102344.03;5059605;28;45452;-75
2022/01/28 11:24:08;;;;;;;;;16.50;15.25;;;;;12.16;51.25;102359.28;5059584;28;46025;-74
2022/01/28 11:26:42;;;;;;;;;15.25;15.00;;;;;12.06;50.59;102350.03;5059258;28;46281;-75
2022/01/28 11:29:18;;;;;;;;;16.75;15.00;;;;;12.12;51.02;102348.63;5059086;28;45449;-75
2022/01/28 11:31:46;;;;;;;;;22.00;19.75;;;;;12.46;50.35;102305.81;5059166;28;45491;-79
2022/01/28 11:34:24;;;;;;;;;25.25;21.25;;;;;13.11;48.89;102328.22;5059487;28;45359;-75
2022/01/28 11:36:52;;;;;;;;;15.75;15.50;;;;;13.41;47.22;102327.94;5058867;28;46338;-74
2022/01/28 11:39:34;;;;;;;;;16.00;13.75;;;;;13.60;48.39;102334.91;5059075;28;45429;-79
2022/01/28 11:42:02;;;;;;;;;15.00;14.25;;;;;13.91;48.20;102337.22;5058905;28;45480;-75
2022/01/28 11:44:50;;;;;;;;;17.00;15.25;;;;;14.16;47.62;102337.41;5059086;28;45500;-76
2022/01/28 11:47:27;;;;;;;;;19.50;18.50;;;;;13.88;46.74;102287.16;5058416;28;46408;-75
2022/01/28 11:50:15;;;;;;;;;19.25;17.75;;;;;14.04;47.56;102332.50;5058386;28;45579;-75
2022/01/28 11:52:43;;;;;;;;;17.50;17.00;;;;;13.84;47.28;102328.97;5058931;28;45536;-74
2022/01/28 11:55:16;;;;;;;;;21.50;18.50;;;;;13.66;48.16;102335.19;5058933;28;45415;-74
2022/01/28 11:57:51;;;;;;;;;20.25;19.50;;;;;13.50;48.76;102333.59;5058863;28;45418;-74
2022/01/28 12:00:27;;;;;;;;;25.00;19.25;;;;;13.28;50.39;102313.28;5058613;28;45514;-75
2022/01/28 12:02:54;;;;;;;;;18.00;17.25;;;;;12.99;50.66;102293.53;5057811;28;45408;-75
2022/01/28 12:05:39;;;;;;;;;21.50;17.50;;;;;13.00;51.29;102332.06;5058821;28;45615;-75
2022/01/28 12:08:05;;;;;;;;;20.75;20.00;;;;;13.01;51.35;102327.69;5054651;28;46237;-74
2022/01/28 12:10:33;;;;;;;;;18.75;17.50;;;;;13.13;51.46;102296.81;5058822;28;45351;-75
2022/01/28 12:13:05;;;;;;;;;18.00;16.50;;;;;13.75;50.17;102318.06;5057353;28;45334;-74
2022/01/28 12:16:01;;;;;;;;;28.25;23.25;;;;;14.21;48.90;102313.13;5058896;28;45342;-75
2022/01/28 12:18:45;;;;;;;;;14.25;13.00;;;;;14.36;48.43;102315.50;5058515;28;45273;-74
2022/01/28 12:21:15;;;;;;;;;22.00;20.00;;;;;14.07;48.10;102306.38;5058228;28;45480;-74
2022/01/28 12:23:43;;;;;;;;;22.75;19.50;;;;;13.89;47.74;102307.34;5058373;28;45476;-75
2022/01/28 12:26:13;;;;;;;;;20.50;18.00;;;;;13.82;47.56;102300.00;5059062;28;45936;-74
2022/01/28 12:28:45;;;;;;;;;21.50;19.50;;;;;13.75;48.57;102297.03;5057260;27;46327;-74
2022/01/28 12:31:20;;;;;;;;;19.00;18.75;;;;;13.67;48.40;102299.34;5058312;28;45544;-74
2022/01/28 12:33:50;;;;;;;;;16.75;15.25;;;;;13.66;48.78;102308.94;5058271;28;45399;-75
2022/01/28 12:36:26;;;;;;;;;18.50;18.25;;;;;13.72;49.07;102301.31;5058490;28;45429;-75
2022/01/28 12:39:20;;;;;;;;;26.25;24.75;;;;;13.72;48.68;102305.69;5057619;28;46297;-74
2022/01/28 12:42:04;;;;;;;;;36.50;31.25;;;;;13.71;48.70;102307.44;5058060;28;45392;-74
2022/01/28 12:44:31;;;;;;;;;48.00;38.75;;;;;13.68;48.33;102315.16;5057945;28;45305;-75
2022/01/28 12:47:09;;;;;;;;;17.50;16.00;;;;;13.36;47.82;102276.03;5058384;28;45291;-75
2022/01/28 12:49:36;;;;;;;;;14.50;14.00;;;;;13.65;47.95;102316.75;5057873;28;46517;-75
2022/01/28 12:52:04;;;;;;;;;18.75;17.00;;;;;13.71;47.88;102310.06;5058004;28;45516;-75
2022/01/28 12:54:44;;;;;;;;;17.50;16.00;;;;;13.86;48.16;102312.44;5058007;28;45497;-74
2022/01/28 12:57:13;;;;;;;;;14.50;13.50;;;;;13.95;47.74;102309.34;5058528;28;45219;-74
2022/01/28 12:59:42;;;;;;;;;28.75;27.00;;;;;13.86;47.44;102285.28;5057956;28;46122;-75
2022/01/28 13:02:08;;;;;;;;;36.00;31.75;;;;;14.02;46.50;102316.66;5058120;28;45588;-74
2022/01/28 13:04:57;;;;;;;;;25.75;23.50;;;;;13.97;46.77;102310.31;5057802;28;45556;-75
2022/01/28 13:10:07;;;;;;;;;20.75;17.25;;;;;13.93;47.05;102295.25;5057872;28;45802;-74
2022/01/28 13:12:33;;;;;;;;;26.75;24.75;;;;;14.06;47.03;102308.06;5057803;28;45661;-75
2022/01/28 13:15:11;;;;;;;;;22.00;21.75;;;;;13.82;46.88;102286.00;5057670;28;45572;-74
2022/01/28 13:17:37;;;;;;;;;19.75;19.00;;;;;13.82;47.15;102304.38;5057840;28;45212;-74
2022/01/28 13:20:05;;;;;;;;;16.50;13.75;;;;;13.66;47.67;102287.91;5057542;28;45971;-75
2022/01/28 13:22:32;;;;;;;;;17.00;15.50;;;;;13.83;47.90;102306.19;5057388;28;45338;-74
2022/01/28 13:24:59;;;;;;;;;23.25;22.75;;;;;13.81;48.18;102297.34;5057573;28;45428;-74
2022/01/28 13:27:40;;;;;;;;;27.25;23.50;;;;;13.72;48.70;102276.78;5057800;28;45342;-74
2022/01/28 13:30:13;;;;;;;;;21.00;18.25;;;;;13.80;48.83;102306.03;5057232;28;46175;-74
2022/01/28 13:32:41;;;;;;;;;26.50;21.50;;;;;13.53;48.87;102268.09;5057575;28;45409;-75
2022/01/28 13:35:24;;;;;;;;;17.50;14.50;;;;;13.61;48.96;102302.59;5056962;28;45739;-76
2022/01/28 13:37:53;;;;;;;;;15.25;14.25;;;;;13.68;48.86;102315.16;5057448;28;45566;-75
2022/01/28 13:40:19;;;;;;;;;18.25;15.75;;;;;13.78;48.52;102307.69;5056547;28;45327;-79
2022/01/28 13:42:59;;;;;;;;;15.50;14.00;;;;;13.90;49.13;102308.25;5056974;28;45385;-76
2022/01/28 13:45:40;;;;;;;;;17.25;15.00;;;;;13.89;48.49;102298.59;5057186;28;45472;-76
2022/01/28 13:48:15;;;;;;;;;18.50;16.75;;;;;13.70;48.48;102289.84;5057066;28;45459;-76
2022/01/28 13:50:43;;;;;;;;;14.25;14.25;;;;;13.25;48.11;102217.75;5072612;28;46773;-75
2022/01/28 13:53:34;;;;;;;;;20.25;17.00;;;;;13.63;47.98;102293.06;5050601;28;45327;-76
2022/01/28 13:56:00;;;;;;;;;17.00;15.75;;;;;13.50;48.05;102294.19;5055121;28;45484;-75
2022/01/28 13:58:26;;;;;;;;;48.75;39.00;;;;;13.41;48.36;102287.63;5056579;28;45529;-78
2022/01/28 14:00:52;;;;;;;;;26.25;22.00;;;;;13.32;47.78;102296.88;5056489;28;46262;-75
2022/01/28 14:03:26;;;;;;;;;21.75;19.50;;;;;13.27;48.21;102303.63;5059240;28;45422;-77